createdAt,value
2023-04-29T00:01:03.644Z,100268.16
2023-04-29T00:03:32.661Z,100260.53
2023-04-29T00:06:00.295Z,100263.06
2023-04-29T00:08:27.344Z,100258.56
2023-04-29T00:10:54.106Z,100257.38
2023-04-29T00:13:21.312Z,100256.56
2023-04-29T00:15:50.348Z,100260.81
2023-04-29T00:18:16.924Z,100258.69
2023-04-29T00:20:43.896Z,100253.56
2023-04-29T00:23:11.191Z,100252.00
2023-04-29T00:25:38.865Z,100255.00
2023-04-29T00:28:06.205Z,100254.31
2023-04-29T00:30:34.586Z,100250.47
2023-04-29T00:33:01.325Z,100239.69
2023-04-29T00:35:27.931Z,100251.31
2023-04-29T00:37:54.551Z,100240.66
2023-04-29T00:40:21.304Z,100243.53
2023-04-29T00:42:47.900Z,100248.75
2023-04-29T00:45:14.506Z,100249.63
2023-04-29T00:47:42.014Z,100257.56
2023-04-29T00:50:09.232Z,100258.81
2023-04-29T00:52:37.691Z,100259.09
2023-04-29T00:55:06.429Z,100266.47
2023-04-29T00:57:34.636Z,100261.94
2023-04-29T01:00:01.477Z,100261.09
2023-04-29T01:02:28.925Z,100262.22
2023-04-29T01:04:55.736Z,100262.50
2023-04-29T01:07:48.794Z,100254.28
2023-04-29T01:10:22.851Z,100256.25
2023-04-29T01:13:06.957Z,100257.97
2023-04-29T01:15:42.163Z,100258.53
2023-04-29T01:18:26.396Z,100261.34
2023-04-29T01:20:53.785Z,100255.84
2023-04-29T01:23:20.506Z,100253.88
2023-04-29T01:25:48.966Z,100260.81
2023-04-29T01:28:54.691Z,100255.44
2023-04-29T01:31:45.170Z,100255.56
2023-04-29T01:34:16.914Z,100261.22
2023-04-29T01:37:29.423Z,100257.41
2023-04-29T01:40:10.256Z,100247.88
2023-04-29T01:42:43.077Z,100240.81
2023-04-29T01:45:11.390Z,100244.38
2023-04-29T01:47:39.293Z,100236.72
2023-04-29T01:50:06.706Z,100242.50
2023-04-29T01:52:33.266Z,100247.75
2023-04-29T01:54:59.803Z,100238.97
2023-04-29T01:57:26.434Z,100248.19
2023-04-29T01:59:53.197Z,100246.50
2023-04-29T02:02:23.555Z,100243.91
2023-04-29T02:04:50.765Z,100248.56
2023-04-29T02:07:17.662Z,100241.47
2023-04-29T02:09:44.261Z,100238.78
2023-04-29T02:12:10.850Z,100237.09
2023-04-29T02:14:37.893Z,100241.91
2023-04-29T02:17:04.719Z,100250.09
2023-04-29T02:19:31.329Z,100247.41
2023-04-29T02:21:57.905Z,100247.41
2023-04-29T02:24:24.467Z,100244.47
2023-04-29T02:26:51.099Z,100244.59
2023-04-29T02:29:17.698Z,100245.84
2023-04-29T02:31:44.398Z,100245.16
2023-04-29T02:34:10.989Z,100239.78
2023-04-29T02:36:37.621Z,100238.34
2023-04-29T02:39:04.485Z,100241.03
2023-04-29T02:41:31.064Z,100231.00
2023-04-29T02:43:58.288Z,100238.63
2023-04-29T02:46:24.938Z,100227.00
2023-04-29T02:48:51.530Z,100228.00
2023-04-29T02:51:18.111Z,100227.13
2023-04-29T02:53:44.637Z,100227.13
2023-04-29T02:56:11.653Z,100226.31
2023-04-29T02:58:38.225Z,100219.06
2023-04-29T03:01:04.981Z,100222.88
2023-04-29T03:03:32.047Z,100229.81
2023-04-29T03:05:58.789Z,100229.81
2023-04-29T03:08:25.312Z,100227.00
2023-04-29T03:10:51.930Z,100232.13
2023-04-29T03:13:18.536Z,100226.88
2023-04-29T03:15:45.240Z,100219.63
2023-04-29T03:18:11.897Z,100217.94
2023-04-29T03:20:38.486Z,100218.81
2023-04-29T03:23:05.356Z,100220.78
2023-04-29T03:25:32.022Z,100223.19
2023-04-29T03:27:58.593Z,100217.69
2023-04-29T03:30:25.275Z,100220.38
2023-04-29T03:32:51.840Z,100220.38
2023-04-29T03:35:18.556Z,100227.72
2023-04-29T03:37:45.174Z,100230.13
2023-04-29T03:40:12.730Z,100228.16
2023-04-29T03:42:39.401Z,100233.25
2023-04-29T03:45:06.987Z,100234.09
2023-04-29T03:47:33.649Z,100233.97
2023-04-29T03:50:00.216Z,100242.03
2023-04-29T03:52:27.245Z,100242.03
2023-04-29T03:54:53.829Z,100242.91
2023-04-29T03:57:20.410Z,100258.91
2023-04-29T03:59:50.552Z,100256.22
2023-04-29T04:02:17.578Z,100258.91
2023-04-29T04:04:44.567Z,100256.22
2023-04-29T04:07:11.704Z,100255.50
2023-04-29T04:09:38.632Z,100256.34
2023-04-29T04:12:06.400Z,100257.91
2023-04-29T04:14:33.031Z,100254.22
2023-04-29T04:16:59.573Z,100263.72
2023-04-29T04:19:27.117Z,100262.75
2023-04-29T04:21:53.756Z,100256.50
2023-04-29T04:24:20.420Z,100256.38
2023-04-29T04:26:46.973Z,100258.09
2023-04-29T04:29:13.545Z,100263.34
2023-04-29T04:31:40.446Z,100261.34
2023-04-29T04:34:07.026Z,100263.91
2023-04-29T04:36:33.657Z,100268.16
2023-04-29T04:39:00.298Z,100270.00
2023-04-29T04:41:27.056Z,100257.41
2023-04-29T04:43:53.665Z,100259.09
2023-04-29T04:46:20.271Z,100261.78
2023-04-29T04:48:46.952Z,100256.41
2023-04-29T04:51:14.037Z,100251.88
2023-04-29T04:53:40.968Z,100250.88
2023-04-29T04:56:08.382Z,100260.53
2023-04-29T04:58:34.984Z,100255.00
2023-04-29T05:01:01.613Z,100251.31
2023-04-29T05:03:28.624Z,100248.06
2023-04-29T05:05:56.741Z,100244.78
2023-04-29T05:08:23.439Z,100243.22
2023-04-29T05:10:50.335Z,100243.66
2023-04-29T05:13:17.089Z,100244.22
2023-04-29T05:15:44.636Z,100245.50
2023-04-29T05:18:11.824Z,100254.97
2023-04-29T05:20:38.465Z,100250.59
2023-04-29T05:23:05.096Z,100257.84
2023-04-29T05:25:31.746Z,100250.88
2023-04-29T05:27:58.313Z,100251.72
2023-04-29T05:30:24.890Z,100248.03
2023-04-29T05:32:51.711Z,100253.28
2023-04-29T05:35:18.482Z,100250.44
2023-04-29T05:37:45.056Z,100252.16
2023-04-29T05:40:11.937Z,100260.91
2023-04-29T05:42:38.538Z,100254.41
2023-04-29T05:45:05.763Z,100257.81
2023-04-29T05:47:32.394Z,100263.03
2023-04-29T05:49:59.248Z,100272.97
2023-04-29T05:52:25.917Z,100270.84
2023-04-29T05:54:52.539Z,100267.16
2023-04-29T05:57:19.133Z,100266.72
2023-04-29T05:59:45.707Z,100270.69
2023-04-29T06:02:12.525Z,100268.56
2023-04-29T06:04:41.589Z,100275.06
2023-04-29T06:07:09.339Z,100267.25
2023-04-29T06:09:36.921Z,100269.22
2023-04-29T06:12:04.467Z,100260.41
2023-04-29T06:14:31.024Z,100258.69
2023-04-29T06:16:57.872Z,100267.88
2023-04-29T06:19:25.362Z,100273.53
2023-04-29T06:21:52.063Z,100273.00
2023-04-29T06:24:18.666Z,100268.47
2023-04-29T06:26:45.610Z,100281.34
2023-04-29T06:29:12.463Z,100272.25
2023-04-29T06:31:39.101Z,100280.75
2023-04-29T06:34:05.995Z,100282.59
2023-04-29T06:36:33.059Z,100282.19
2023-04-29T06:38:59.694Z,100279.31
2023-04-29T06:41:27.329Z,100278.03
2023-04-29T06:43:54.121Z,100276.13
2023-04-29T06:46:20.723Z,100274.00
2023-04-29T06:48:47.598Z,100266.19
2023-04-29T06:51:14.146Z,100270.81
2023-04-29T06:53:40.768Z,100266.56
2023-04-29T06:56:07.845Z,100274.50
2023-04-29T06:58:34.487Z,100276.38
2023-04-29T07:01:01.401Z,100273.50
2023-04-29T07:03:28.140Z,100278.34
2023-04-29T07:05:54.793Z,100279.75
2023-04-29T07:08:21.340Z,100278.91
2023-04-29T07:10:58.070Z,100274.75
2023-04-29T07:13:25.421Z,100264.38
2023-04-29T07:15:52.203Z,100275.38
2023-04-29T07:18:18.863Z,100269.38
2023-04-29T07:20:46.128Z,100270.09
2023-04-29T07:23:12.894Z,100280.16
2023-04-29T07:25:39.481Z,100280.81
2023-04-29T07:28:06.039Z,100271.03
2023-04-29T07:30:32.648Z,100279.81
2023-04-29T07:32:59.188Z,100276.97
2023-04-29T07:35:25.855Z,100266.31
2023-04-29T07:37:52.480Z,100273.66
2023-04-29T07:40:19.093Z,100267.16
2023-04-29T07:42:45.810Z,100263.03
2023-04-29T07:45:13.911Z,100258.53
2023-04-29T07:47:40.636Z,100265.25
2023-04-29T07:50:07.689Z,100273.94
2023-04-29T07:52:34.857Z,100280.00
2023-04-29T07:55:01.990Z,100272.22
2023-04-29T07:57:28.528Z,100276.25
2023-04-29T07:59:55.497Z,100279.22
2023-04-29T08:02:22.211Z,100284.56
2023-04-29T08:04:51.374Z,100288.16
2023-04-29T08:07:18.531Z,100291.56
2023-04-29T08:09:45.239Z,100286.16
2023-04-29T08:12:11.852Z,100287.34
2023-04-29T08:14:38.528Z,100292.75
2023-04-29T08:17:05.050Z,100293.06
2023-04-29T08:19:32.945Z,100288.81
2023-04-29T08:22:01.126Z,100288.88
2023-04-29T08:24:29.161Z,100283.63
2023-04-29T08:26:56.772Z,100282.63
2023-04-29T08:29:23.413Z,100273.50
2023-04-29T08:31:50.750Z,100275.91
2023-04-29T08:34:17.410Z,100276.94
2023-04-29T08:36:43.963Z,100282.88
2023-04-29T08:39:10.538Z,100280.66
2023-04-29T08:41:37.562Z,100272.84
2023-04-29T08:44:04.227Z,100271.25
2023-04-29T08:46:31.861Z,100271.53
2023-04-29T08:48:59.593Z,100270.00
2023-04-29T08:51:26.664Z,100273.94
2023-04-29T08:53:53.305Z,100270.50
2023-04-29T08:56:23.214Z,100279.00
2023-04-29T08:58:58.949Z,100279.84
2023-04-29T09:01:28.798Z,100282.31
2023-04-29T09:04:26.383Z,100282.97
2023-04-29T09:06:56.281Z,100283.22
2023-04-29T09:09:25.183Z,100282.13
2023-04-29T09:11:52.176Z,100286.72
2023-04-29T09:14:20.538Z,100289.63
2023-04-29T09:16:47.735Z,100288.34
2023-04-29T09:19:35.671Z,100284.88
2023-04-29T09:22:03.972Z,100284.78
2023-04-29T09:24:31.790Z,100285.34
2023-04-29T09:26:59.869Z,100288.84
2023-04-29T09:29:26.804Z,100297.38
2023-04-29T09:31:53.757Z,100288.84
2023-04-29T09:34:36.037Z,100285.28
2023-04-29T09:37:02.622Z,100285.19
2023-04-29T09:39:38.921Z,100287.06
2023-04-29T09:42:06.271Z,100285.00
2023-04-29T09:44:37.993Z,100286.41
2023-04-29T09:47:05.593Z,100288.22
2023-04-29T09:49:38.830Z,100277.78
2023-04-29T09:52:08.129Z,100283.97
2023-04-29T09:54:39.220Z,100285.19
2023-04-29T09:57:08.132Z,100284.25
2023-04-29T09:59:36.649Z,100287.19
2023-04-29T10:02:10.357Z,100275.34
2023-04-29T10:04:40.529Z,100276.47
2023-04-29T10:07:08.624Z,100276.28
2023-04-29T10:09:39.005Z,100270.84
2023-04-29T10:12:07.742Z,100277.50
2023-04-29T10:14:43.793Z,100275.25
2023-04-29T10:17:42.369Z,100268.47
2023-04-29T10:20:12.586Z,100273.56
2023-04-29T10:22:48.975Z,100278.16
2023-04-29T10:25:18.423Z,100280.50
2023-04-29T10:27:46.618Z,100273.91
2023-04-29T10:30:14.778Z,100273.56
2023-04-29T10:32:50.539Z,100272.78
2023-04-29T10:35:20.267Z,100271.47
2023-04-29T10:37:48.999Z,100268.94
2023-04-29T10:40:29.134Z,100251.44
2023-04-29T10:42:55.857Z,100249.06
2023-04-29T10:45:31.739Z,100242.38
2023-04-29T10:48:08.717Z,100236.03
2023-04-29T10:50:47.470Z,100240.88
2023-04-29T10:53:22.297Z,100232.69
2023-04-29T10:55:54.119Z,100226.09
2023-04-29T10:58:43.888Z,100214.69
2023-04-29T11:01:12.735Z,100216.41
2023-04-29T11:03:50.711Z,100209.72
2023-04-29T11:06:17.591Z,100196.84
2023-04-29T11:08:44.944Z,100196.94
2023-04-29T11:11:14.027Z,100204.34
2023-04-29T11:13:40.950Z,100199.44
2023-04-29T11:16:29.778Z,100196.53
2023-04-29T11:19:24.176Z,100196.97
2023-04-29T11:22:04.669Z,100190.03
2023-04-29T11:24:31.448Z,100185.41
2023-04-29T11:27:04.328Z,100187.56
2023-04-29T11:29:33.590Z,100190.53
2023-04-29T11:32:01.962Z,100185.84
2023-04-29T11:34:28.621Z,100186.50
2023-04-29T11:36:55.269Z,100189.00
2023-04-29T11:39:21.839Z,100188.16
2023-04-29T11:41:52.440Z,100189.41
2023-04-29T11:44:25.068Z,100183.53
2023-04-29T11:46:51.622Z,100185.25
2023-04-29T11:49:18.560Z,100183.97
2023-04-29T11:51:45.164Z,100177.44
2023-04-29T11:54:12.095Z,100185.06
2023-04-29T11:56:38.795Z,100181.06
2023-04-29T11:59:08.113Z,100189.66
2023-04-29T12:01:36.091Z,100185.25
2023-04-29T12:04:03.406Z,100187.34
2023-04-29T12:06:31.157Z,100185.88
2023-04-29T12:09:01.220Z,100184.13
2023-04-29T12:11:28.953Z,100189.16
2023-04-29T12:13:56.731Z,100187.25
2023-04-29T12:16:29.301Z,100183.34
2023-04-29T12:18:56.383Z,100177.00
2023-04-29T12:21:22.972Z,100179.94
2023-04-29T12:23:51.510Z,100173.53
2023-04-29T12:26:19.326Z,100171.75
2023-04-29T12:28:46.291Z,100167.56
2023-04-29T12:31:15.599Z,100165.97
2023-04-29T12:33:45.494Z,100157.03
2023-04-29T12:36:19.190Z,100155.50
2023-04-29T12:38:47.710Z,100153.94
2023-04-29T12:41:17.363Z,100151.84
2023-04-29T12:43:44.475Z,100153.03
2023-04-29T12:46:14.800Z,100156.88
2023-04-29T12:48:43.523Z,100153.81
2023-04-29T12:51:11.642Z,100146.47
2023-04-29T12:53:39.214Z,100135.81
2023-04-29T12:56:06.764Z,100139.94
2023-04-29T12:58:34.905Z,100133.56
2023-04-29T13:01:01.773Z,100130.69
2023-04-29T13:03:28.625Z,100126.53
2023-04-29T13:05:55.963Z,100128.84
2023-04-29T13:08:23.123Z,100121.47
2023-04-29T13:10:49.931Z,100115.50
2023-04-29T13:13:16.742Z,100112.34
2023-04-29T13:15:43.396Z,100114.63
2023-04-29T13:18:09.951Z,100114.25
2023-04-29T13:20:41.539Z,100118.19
2023-04-29T13:23:09.342Z,100108.53
2023-04-29T13:25:36.082Z,100104.41
2023-04-29T13:28:02.791Z,100100.22
2023-04-29T13:30:29.413Z,100102.13
2023-04-29T13:32:59.935Z,100096.25
2023-04-29T13:35:29.812Z,100095.66
2023-04-29T13:37:57.504Z,100090.22
2023-04-29T13:40:27.793Z,100088.91
2023-04-29T13:43:02.231Z,100082.50
2023-04-29T13:45:39.046Z,100079.47
2023-04-29T13:48:16.831Z,100072.38
2023-04-29T13:53:52.419Z,100063.13
2023-04-29T13:59:19.620Z,100071.81
2023-04-29T14:02:13.954Z,100071.78
2023-04-29T14:04:11.925Z,100078.34
2023-04-29T14:06:38.962Z,100081.13
2023-04-29T14:09:06.085Z,100084.84
2023-04-29T14:11:36.588Z,100093.63
2023-04-29T14:14:04.043Z,100092.16
2023-04-29T14:16:30.763Z,100080.25
2023-04-29T14:18:57.643Z,100080.25
2023-04-29T14:21:24.347Z,100073.50
2023-04-29T14:23:51.013Z,100062.47
2023-04-29T14:26:27.999Z,100075.28
2023-04-29T14:28:59.469Z,100069.16
2023-04-29T14:31:30.258Z,100059.69
2023-04-29T14:33:58.326Z,100064.31
2023-04-29T14:36:26.631Z,100058.38
2023-04-29T14:38:53.221Z,100062.84
2023-04-29T14:41:21.812Z,100059.72
2023-04-29T14:43:48.500Z,100059.00
2023-04-29T14:46:15.249Z,100060.84
2023-04-29T14:48:41.960Z,100060.44
2023-04-29T14:51:08.797Z,100066.72
2023-04-29T14:53:37.835Z,100067.19
2023-04-29T14:56:04.770Z,100064.13
2023-04-29T14:58:31.445Z,100062.66
2023-04-29T15:00:58.101Z,100068.72
2023-04-29T15:03:24.977Z,100069.94
2023-04-29T15:05:51.969Z,100073.69
2023-04-29T15:08:19.526Z,100075.09
2023-04-29T15:10:50.179Z,100063.38
2023-04-29T15:13:17.050Z,100068.75
2023-04-29T15:15:43.739Z,100062.56
2023-04-29T15:18:10.371Z,100063.75
2023-04-29T15:20:37.713Z,100062.88
2023-04-29T15:23:05.733Z,100065.06
2023-04-29T15:25:34.608Z,100063.16
2023-04-29T15:28:03.884Z,100065.50
2023-04-29T15:30:30.603Z,100066.34
2023-04-29T15:32:57.265Z,100062.91
2023-04-29T15:35:23.857Z,100063.19
2023-04-29T15:37:50.612Z,100055.91
2023-04-29T15:40:17.700Z,100064.41
2023-04-29T15:42:44.572Z,100059.56
2023-04-29T15:45:11.681Z,100058.78
2023-04-29T15:47:38.695Z,100055.06
2023-04-29T15:50:05.955Z,100051.31
2023-04-29T15:52:32.590Z,100052.28
2023-04-29T15:54:59.296Z,100051.16
2023-04-29T15:57:26.191Z,100044.75
2023-04-29T15:59:53.096Z,100054.81
2023-04-29T16:02:21.133Z,100038.59
2023-04-29T16:04:48.028Z,100040.19
2023-04-29T16:07:14.774Z,100043.88
2023-04-29T16:09:41.570Z,100039.59
2023-04-29T16:12:08.603Z,100040.44
2023-04-29T16:14:35.201Z,100046.16
2023-04-29T16:17:02.148Z,100043.16
2023-04-29T16:19:29.041Z,100049.72
2023-04-29T16:21:55.891Z,100048.81
2023-04-29T16:24:22.821Z,100049.34
2023-04-29T16:26:50.783Z,100048.84
2023-04-29T16:29:18.358Z,100043.81
2023-04-29T16:31:45.366Z,100042.22
2023-04-29T16:34:12.435Z,100038.13
2023-04-29T16:36:39.430Z,100028.72
2023-04-29T16:39:06.290Z,100037.06
2023-04-29T16:41:33.148Z,100033.44
2023-04-29T16:43:59.916Z,100046.06
2023-04-29T16:46:26.660Z,100050.25
2023-04-29T16:48:56.762Z,100045.56
2023-04-29T16:51:29.186Z,100037.44
2023-04-29T16:53:55.805Z,100038.94
2023-04-29T16:56:22.677Z,100042.31
2023-04-29T16:58:49.355Z,100037.22
2023-04-29T17:01:16.448Z,100050.00
2023-04-29T17:03:43.140Z,100047.72
2023-04-29T17:06:10.006Z,100056.16
2023-04-29T17:08:36.863Z,100065.09
2023-04-29T17:11:04.922Z,100064.38
2023-04-29T17:13:31.913Z,100067.56
2023-04-29T17:15:58.570Z,100063.63
2023-04-29T17:18:25.170Z,100067.41
2023-04-29T17:20:51.786Z,100067.22
2023-04-29T17:23:18.396Z,100071.84
2023-04-29T17:25:45.225Z,100071.41
2023-04-29T17:28:11.899Z,100071.00
2023-04-29T17:30:38.602Z,100078.47
2023-04-29T17:33:07.859Z,100080.09
2023-04-29T17:35:35.342Z,100085.44
2023-04-29T17:38:02.063Z,100085.50
2023-04-29T17:40:28.732Z,100080.78
2023-04-29T17:42:55.432Z,100087.50
2023-04-29T17:45:22.023Z,100091.84
2023-04-29T17:47:48.685Z,100084.38
2023-04-29T17:50:15.398Z,100094.84
2023-04-29T17:52:42.606Z,100096.88
2023-04-29T17:55:10.438Z,100096.81
2023-04-29T17:57:38.233Z,100097.31
2023-04-29T18:00:08.549Z,100096.34
2023-04-29T18:02:35.300Z,100101.78
2023-04-29T18:05:03.487Z,100107.44
2023-04-29T18:07:32.858Z,100107.28
2023-04-29T18:09:59.487Z,100105.22
2023-04-29T18:12:26.215Z,100108.97
2023-04-29T18:14:52.882Z,100117.31
2023-04-29T18:17:19.873Z,100118.41
2023-04-29T18:19:48.661Z,100120.47
2023-04-29T18:22:16.053Z,100122.34
2023-04-29T18:24:42.700Z,100121.72
2023-04-29T18:27:09.293Z,100126.69
2023-04-29T18:29:35.906Z,100123.66
2023-04-29T18:32:03.448Z,100140.78
2023-04-29T18:34:31.099Z,100129.13
2023-04-29T18:36:57.637Z,100136.16
2023-04-29T18:39:24.276Z,100142.28
2023-04-29T18:41:51.036Z,100144.91
2023-04-29T18:44:17.693Z,100151.69
2023-04-29T18:46:44.365Z,100152.06
2023-04-29T18:49:16.072Z,100155.81
2023-04-29T18:51:46.761Z,100163.47
2023-04-29T18:54:18.422Z,100157.56
2023-04-29T18:56:49.430Z,100155.53
2023-04-29T18:59:19.009Z,100163.31
2023-04-29T19:01:47.026Z,100164.69
2023-04-29T19:04:14.239Z,100167.41
2023-04-29T19:06:41.924Z,100169.75
2023-04-29T19:09:08.819Z,100164.38
2023-04-29T19:11:35.426Z,100167.41
2023-04-29T19:14:03.978Z,100163.19
2023-04-29T19:16:30.576Z,100175.41
2023-04-29T19:18:58.452Z,100173.72
2023-04-29T19:21:25.069Z,100175.41
2023-04-29T19:23:53.184Z,100177.81
2023-04-29T19:26:19.726Z,100170.16
2023-04-29T19:28:46.415Z,100172.75
2023-04-29T19:31:13.065Z,100175.13
2023-04-29T19:33:39.669Z,100178.66
2023-04-29T19:36:06.218Z,100176.31
2023-04-29T19:38:32.872Z,100180.91
2023-04-29T19:40:59.993Z,100174.81
2023-04-29T19:43:26.615Z,100177.00
2023-04-29T19:45:53.209Z,100177.34
2023-04-29T19:48:19.939Z,100177.88
2023-04-29T19:50:46.485Z,100179.88
2023-04-29T19:53:13.236Z,100192.22
2023-04-29T19:55:40.224Z,100180.72
2023-04-29T19:58:07.218Z,100187.31
2023-04-29T20:00:34.226Z,100180.53
2023-04-29T20:03:00.896Z,100188.66
2023-04-29T20:05:28.418Z,100186.94
2023-04-29T20:07:56.014Z,100189.50
2023-04-29T20:10:22.775Z,100190.16
2023-04-29T20:12:49.519Z,100186.44
2023-04-29T20:15:16.478Z,100190.16
2023-04-29T20:17:43.197Z,100181.84
2023-04-29T20:20:10.575Z,100190.81
2023-04-29T20:22:37.317Z,100180.31
2023-04-29T20:25:04.444Z,100185.06
2023-04-29T20:27:31.269Z,100196.41
2023-04-29T20:29:57.864Z,100186.06
2023-04-29T20:32:24.713Z,100185.22
2023-04-29T20:34:51.737Z,100178.94
2023-04-29T20:37:19.862Z,100181.78
2023-04-29T20:39:47.106Z,100182.44
2023-04-29T20:42:13.739Z,100193.94
2023-04-29T20:44:40.845Z,100181.22
2023-04-29T20:47:07.407Z,100194.25
2023-04-29T20:49:33.961Z,100200.09
2023-04-29T20:52:01.009Z,100201.59
2023-04-29T20:54:27.617Z,100204.97
2023-04-29T20:56:54.147Z,100202.56
2023-04-29T20:59:20.752Z,100210.84
2023-04-29T21:01:47.511Z,100206.22
2023-04-29T21:04:14.361Z,100206.84
2023-04-29T21:06:41.482Z,100211.03
2023-04-29T21:09:09.026Z,100216.91
2023-04-29T21:11:35.660Z,100222.72
2023-04-29T21:14:02.888Z,100210.72
2023-04-29T21:16:29.468Z,100212.91
2023-04-29T21:18:56.419Z,100219.13
2023-04-29T21:21:23.292Z,100209.81
2023-04-29T21:23:49.882Z,100208.13
2023-04-29T21:26:16.439Z,100208.94
2023-04-29T21:28:43.022Z,100213.81
2023-04-29T21:31:15.304Z,100216.69
2023-04-29T21:33:46.246Z,100213.63
2023-04-29T21:36:13.731Z,100212.22
2023-04-29T21:38:42.673Z,100219.47
2023-04-29T21:41:26.546Z,100216.78
2023-04-29T21:43:55.094Z,100219.03
2023-04-29T21:46:21.868Z,100221.09
2023-04-29T21:48:49.071Z,100219.22
2023-04-29T21:51:15.708Z,100225.94
2023-04-29T21:53:43.060Z,100221.25
2023-04-29T21:56:09.674Z,100227.81
2023-04-29T21:58:36.398Z,100225.50
2023-04-29T22:01:05.611Z,100227.19
2023-04-29T22:03:32.282Z,100227.34
2023-04-29T22:05:59.078Z,100223.94
2023-04-29T22:08:25.735Z,100228.34
2023-04-29T22:10:52.343Z,100224.63
2023-04-29T22:13:18.975Z,100220.91
2023-04-29T22:15:45.553Z,100216.69
2023-04-29T22:18:12.257Z,100218.53
2023-04-29T22:20:38.897Z,100213.53
2023-04-29T22:23:05.732Z,100213.25
2023-04-29T22:25:32.469Z,100210.16
2023-04-29T22:27:59.191Z,100212.22
2023-04-29T22:30:25.725Z,100210.06
2023-04-29T22:32:52.357Z,100210.94
2023-04-29T22:35:18.934Z,100214.63
2023-04-29T22:37:45.614Z,100218.88
2023-04-29T22:40:12.965Z,100222.78
2023-04-29T22:42:41.910Z,100222.78
2023-04-29T22:45:10.231Z,100216.47
2023-04-29T22:47:36.920Z,100221.19
2023-04-29T22:50:03.751Z,100216.09
2023-04-29T22:52:32.743Z,100218.63
2023-04-29T22:54:59.850Z,100221.19
2023-04-29T22:57:26.396Z,100223.56
2023-04-29T22:59:56.950Z,100228.00
2023-04-29T23:02:29.012Z,100222.03
2023-04-29T23:04:56.649Z,100223.75
2023-04-29T23:07:24.070Z,100219.88
2023-04-29T23:09:51.446Z,100214.31
2023-04-29T23:12:18.669Z,100224.81
2023-04-29T23:14:45.443Z,100230.84
2023-04-29T23:17:12.277Z,100221.19
2023-04-29T23:19:38.936Z,100231.47
2023-04-29T23:22:08.369Z,100232.47
2023-04-29T23:24:35.590Z,100226.88
2023-04-29T23:27:05.123Z,100226.59
2023-04-29T23:29:34.037Z,100215.56
2023-04-29T23:32:01.272Z,100214.41
2023-04-29T23:34:27.936Z,100213.09
2023-04-29T23:36:54.537Z,100214.94
2023-04-29T23:39:21.125Z,100212.94
2023-04-29T23:41:47.711Z,100210.88
2023-04-29T23:44:14.266Z,100212.16
2023-04-29T23:46:40.927Z,100213.19
2023-04-29T23:49:07.553Z,100217.25
2023-04-29T23:51:34.132Z,100214.41
2023-04-29T23:54:00.889Z,100210.00
2023-04-29T23:56:29.185Z,100206.63
2023-04-29T23:58:55.843Z,100211.16
